createdAt,value
2018-09-22T00:00:48.686Z,33.14
2018-09-22T00:05:51.958Z,33.07
2018-09-22T00:10:55.238Z,32.91
2018-09-22T00:15:58.514Z,32.79
2018-09-22T00:21:01.927Z,32.80
2018-09-22T00:26:05.202Z,32.78
2018-09-22T00:31:08.483Z,32.81
2018-09-22T00:36:11.775Z,32.68
2018-09-22T00:41:15.052Z,32.77
2018-09-22T00:46:18.478Z,32.44
2018-09-22T00:51:21.759Z,32.45
2018-09-22T00:56:25.038Z,32.67
2018-09-22T01:01:28.318Z,31.89
2018-09-22T01:06:31.595Z,32.08
2018-09-22T01:11:34.874Z,31.99
2018-09-22T01:16:38.442Z,31.91
2018-09-22T01:21:41.734Z,31.96
2018-09-22T01:26:45.019Z,31.99
2018-09-22T01:31:48.314Z,32.12
2018-09-22T01:36:51.606Z,32.42
2018-09-22T01:41:54.886Z,31.89
2018-09-22T01:46:58.192Z,32.46
2018-09-22T01:52:01.469Z,32.12
2018-09-22T01:57:04.758Z,32.31
2018-09-22T02:02:08.055Z,32.10
2018-09-22T02:07:11.339Z,31.66
2018-09-22T02:12:14.629Z,31.86
2018-09-22T02:17:17.909Z,31.69
2018-09-22T02:22:21.274Z,31.81
2018-09-22T02:27:24.554Z,31.93
2018-09-22T02:32:27.867Z,31.19
2018-09-22T02:37:31.150Z,31.40
2018-09-22T02:42:34.441Z,31.60
2018-09-22T02:47:37.727Z,31.81
2018-09-22T02:52:40.997Z,31.42
2018-09-22T02:57:44.278Z,31.59
2018-09-22T03:02:47.588Z,31.35
2018-09-22T03:07:50.970Z,31.64
2018-09-22T03:12:54.255Z,31.66
2018-09-22T03:17:57.551Z,31.68
2018-09-22T03:23:00.840Z,31.67
2018-09-22T03:28:04.122Z,31.48
2018-09-22T03:33:07.410Z,31.20
2018-09-22T03:38:10.774Z,31.66
2018-09-22T03:43:14.058Z,31.54
2018-09-22T03:48:17.332Z,31.43
2018-09-22T03:53:20.615Z,31.85
2018-09-22T03:58:23.899Z,31.44
2018-09-22T04:03:27.185Z,31.84
2018-09-22T04:08:30.464Z,31.48
2018-09-22T04:13:33.878Z,31.68
2018-09-22T04:18:37.171Z,31.50
2018-09-22T04:23:40.458Z,31.62
2018-09-22T04:28:43.739Z,31.41
2018-09-22T04:33:47.019Z,31.84
2018-09-22T04:38:50.303Z,32.02
2018-09-22T04:43:53.610Z,31.99
2018-09-22T04:48:56.932Z,31.95
2018-09-22T04:54:00.258Z,31.65
2018-09-22T04:59:03.558Z,31.86
2018-09-22T05:04:06.854Z,32.29
2018-09-22T05:09:11.962Z,31.84
2018-09-22T05:14:15.266Z,32.17
2018-09-22T05:19:18.543Z,31.97
2018-09-22T05:24:21.843Z,32.26
2018-09-22T05:29:25.118Z,32.40
2018-09-22T05:34:28.394Z,32.43
2018-09-22T05:39:31.679Z,32.48
2018-09-22T05:44:34.958Z,32.14
2018-09-22T05:49:38.243Z,32.18
2018-09-22T05:54:41.524Z,32.73
2018-09-22T05:59:44.811Z,32.35
2018-09-22T06:04:48.090Z,32.49
2018-09-22T06:09:51.374Z,32.66
2018-09-22T06:14:54.662Z,32.74
2018-09-22T06:19:57.959Z,32.44
2018-09-22T06:25:01.241Z,32.58
2018-09-22T06:30:04.691Z,33.07
2018-09-22T06:35:07.971Z,33.28
2018-09-22T06:40:11.259Z,33.03
2018-09-22T06:45:14.533Z,32.98
2018-09-22T06:50:17.818Z,33.44
2018-09-22T06:55:21.106Z,33.20
2018-09-22T07:00:24.499Z,33.33
2018-09-22T07:05:27.787Z,37.22
2018-09-22T07:10:31.063Z,35.08
2018-09-22T07:15:34.334Z,34.35
2018-09-22T07:20:37.636Z,34.33
2018-09-22T07:25:40.913Z,34.04
2018-09-22T07:30:44.231Z,34.95
2018-09-22T07:35:47.498Z,34.72
2018-09-22T07:40:50.787Z,35.30
2018-09-22T07:45:54.178Z,36.06
2018-09-22T07:50:57.438Z,35.93
2018-09-22T07:56:00.895Z,36.42
2018-09-22T08:01:04.191Z,35.88
2018-09-22T08:06:07.495Z,36.39
2018-09-22T08:11:10.774Z,36.16
2018-09-22T08:16:14.055Z,35.47
2018-09-22T08:21:17.361Z,36.22
2018-09-22T08:26:20.895Z,35.40
2018-09-22T08:31:24.181Z,34.77
2018-09-22T08:36:27.569Z,34.25
2018-09-22T08:41:30.783Z,34.19
2018-09-22T08:46:34.066Z,34.19
2018-09-22T08:51:37.542Z,33.78
2018-09-22T08:56:40.838Z,34.12
2018-09-22T09:01:44.113Z,33.98
2018-09-22T09:06:47.399Z,34.01
2018-09-22T09:11:50.684Z,33.40
2018-09-22T09:16:53.980Z,33.97
2018-09-22T09:21:57.270Z,33.74
2018-09-22T09:27:01.006Z,33.27
2018-09-22T09:32:04.282Z,33.65
2018-09-22T09:37:07.631Z,33.85
2018-09-22T09:42:11.075Z,33.39
2018-09-22T09:47:14.359Z,33.44
2018-09-22T09:52:17.635Z,32.90
2018-09-22T09:57:20.919Z,33.20
2018-09-22T10:02:24.200Z,32.95
2018-09-22T10:07:27.541Z,33.14
2018-09-22T10:12:30.830Z,32.47
2018-09-22T10:17:34.099Z,32.54
2018-09-22T10:22:37.642Z,33.41
2018-09-22T10:27:41.021Z,33.11
2018-09-22T10:32:44.427Z,33.56
2018-09-22T10:37:47.715Z,33.43
2018-09-22T10:42:51.051Z,33.89
2018-09-22T10:47:54.540Z,33.90
2018-09-22T10:52:57.881Z,33.67
2018-09-22T10:58:01.164Z,33.94
2018-09-22T11:03:04.482Z,33.83
2018-09-22T11:08:07.953Z,33.85
2018-09-22T11:13:11.291Z,33.33
2018-09-22T11:18:14.809Z,33.39
2018-09-22T11:23:18.255Z,33.75
2018-09-22T11:28:21.779Z,33.51
2018-09-22T11:33:25.136Z,33.26
2018-09-22T11:38:28.540Z,33.88
2018-09-22T11:43:31.992Z,33.65
2018-09-22T11:48:35.272Z,32.98
2018-09-22T11:53:39.079Z,33.30
2018-09-22T11:58:42.442Z,33.26
2018-09-22T12:03:45.908Z,31.97
2018-09-22T12:08:49.271Z,31.81
2018-09-22T12:13:52.759Z,32.11
2018-09-22T12:18:56.079Z,31.89
2018-09-22T12:23:59.542Z,32.08
2018-09-22T12:29:03.172Z,32.03
2018-09-22T12:34:07.008Z,32.42
2018-09-22T12:43:31.795Z,32.53
2018-09-22T12:48:35.222Z,32.17
2018-09-22T12:53:38.808Z,31.89
2018-09-22T12:58:42.567Z,32.42
2018-09-22T13:03:45.879Z,32.46
2018-09-22T13:08:49.726Z,32.27
2018-09-22T13:13:53.019Z,31.86
2018-09-22T13:18:56.311Z,32.24
2018-09-22T13:23:59.602Z,31.74
2018-09-22T13:29:03.042Z,31.37
2018-09-22T13:34:06.653Z,31.19
2018-09-22T13:39:11.443Z,31.08
2018-09-22T13:44:14.726Z,31.24
2018-09-22T13:49:18.038Z,31.30
2018-09-22T13:54:21.346Z,31.32
2018-09-22T13:59:24.722Z,31.63
2018-09-22T14:04:28.167Z,31.42
2018-09-22T14:09:31.826Z,31.60
2018-09-22T14:14:35.107Z,31.16
2018-09-22T14:19:38.391Z,31.26
2018-09-22T14:24:41.681Z,31.22
2018-09-22T14:29:45.139Z,31.41
2018-09-22T14:34:48.435Z,31.59
2018-09-22T14:39:51.714Z,30.99
2018-09-22T14:44:55.076Z,31.30
2018-09-22T14:49:58.354Z,31.31
2018-09-22T14:55:01.699Z,31.70
2018-09-22T15:00:05.290Z,31.45
2018-09-22T15:05:08.582Z,30.96
2018-09-22T15:10:11.862Z,31.02
2018-09-22T15:15:15.134Z,30.38
2018-09-22T15:20:18.429Z,30.27
2018-09-22T15:25:21.727Z,30.44
2018-09-22T15:30:25.047Z,30.80
2018-09-22T15:35:28.370Z,30.84
2018-09-22T15:40:31.675Z,31.29
2018-09-22T15:45:35.002Z,31.18
2018-09-22T15:50:38.279Z,31.43
2018-09-22T15:55:41.571Z,31.57
2018-09-22T16:00:45.126Z,31.84
2018-09-22T16:05:48.428Z,31.71
2018-09-22T16:10:51.715Z,31.46
2018-09-22T16:15:55.009Z,31.59
2018-09-22T16:20:58.318Z,32.34
2018-09-22T16:26:01.615Z,32.49
2018-09-22T16:31:04.899Z,32.19
2018-09-22T16:36:08.173Z,32.29
2018-09-22T16:41:11.499Z,32.22
2018-09-22T16:46:14.823Z,32.54
2018-09-22T16:51:18.124Z,32.57
2018-09-22T16:56:21.977Z,32.35
2018-09-22T17:01:25.265Z,32.19
2018-09-22T17:06:28.974Z,32.00
2018-09-22T17:11:32.250Z,32.25
2018-09-22T17:16:35.572Z,32.61
2018-09-22T17:21:38.854Z,32.42
2018-09-22T17:26:42.239Z,32.17
2018-09-22T17:31:45.518Z,32.57
2018-09-22T17:36:48.826Z,32.10
2018-09-22T17:41:52.146Z,32.11
2018-09-22T17:46:55.455Z,32.70
2018-09-22T17:51:58.862Z,32.42
2018-09-22T17:57:02.141Z,32.23
2018-09-22T18:02:05.591Z,32.81
2018-09-22T18:07:08.892Z,32.42
2018-09-22T18:12:12.254Z,32.83
2018-09-22T18:17:15.538Z,32.62
2018-09-22T18:22:18.994Z,32.76
2018-09-22T18:27:22.387Z,32.55
2018-09-22T18:32:26.117Z,32.80
2018-09-22T18:37:29.434Z,33.18
2018-09-22T18:42:32.766Z,32.88
2018-09-22T18:47:36.063Z,33.43
2018-09-22T18:52:39.398Z,33.36
2018-09-22T18:57:42.674Z,32.93
2018-09-22T19:02:46.616Z,33.13
2018-09-22T19:07:50.218Z,33.40
2018-09-22T19:12:54.026Z,33.25
2018-09-22T19:18:07.082Z,33.62
2018-09-22T19:23:18.359Z,33.34
2018-09-22T19:28:27.122Z,33.43
2018-09-22T19:33:38.078Z,33.88
2018-09-22T19:38:46.039Z,33.24
2018-09-22T19:43:55.450Z,33.38
2018-09-22T19:49:05.678Z,33.50
2018-09-22T19:54:09.003Z,33.27
2018-09-22T19:59:12.674Z,33.57
2018-09-22T20:04:16.796Z,32.91
2018-09-22T20:09:20.104Z,33.10
2018-09-22T20:14:23.382Z,33.71
2018-09-22T20:19:27.136Z,33.93
2018-09-22T20:24:31.710Z,33.55
2018-09-22T20:29:35.399Z,34.22
2018-09-22T20:34:39.794Z,33.94
2018-09-22T20:39:43.698Z,33.99
2018-09-22T20:44:47.500Z,33.65
2018-09-22T20:49:51.198Z,33.95
2018-09-22T20:54:54.713Z,33.83
2018-09-22T20:59:58.078Z,34.22
2018-09-22T21:05:01.369Z,33.93
2018-09-22T21:10:05.888Z,34.44
2018-09-22T21:15:09.544Z,34.38
2018-09-22T21:20:13.111Z,34.07
2018-09-22T21:25:17.361Z,34.47
2018-09-22T21:30:21.347Z,34.32
2018-09-22T21:35:24.990Z,34.66
2018-09-22T21:40:29.194Z,34.88
2018-09-22T21:45:32.609Z,34.84
2018-09-22T21:50:35.982Z,35.24
2018-09-22T21:55:39.295Z,35.11
2018-09-22T22:00:42.623Z,34.89
2018-09-22T22:05:46.116Z,35.49
2018-09-22T22:10:49.418Z,35.03
2018-09-22T22:15:52.795Z,35.08
2018-09-22T22:20:56.362Z,35.11
2018-09-22T22:25:59.764Z,35.24
2018-09-22T22:31:03.170Z,35.53
2018-09-22T22:36:07.860Z,35.64
2018-09-22T22:41:12.802Z,35.55
2018-09-22T22:46:18.535Z,35.21
2018-09-22T22:51:22.965Z,35.74
2018-09-22T22:56:26.558Z,35.06
2018-09-22T23:01:29.853Z,35.26
2018-09-22T23:06:33.138Z,35.73
2018-09-22T23:11:36.434Z,35.42
2018-09-22T23:16:39.719Z,35.73
2018-09-22T23:21:43.131Z,35.66
2018-09-22T23:26:46.427Z,35.61
2018-09-22T23:31:49.706Z,36.04
2018-09-22T23:36:53.050Z,35.31
2018-09-22T23:41:56.330Z,35.61
2018-09-22T23:46:59.610Z,35.58
2018-09-22T23:52:02.902Z,36.02
2018-09-22T23:57:06.462Z,35.63
